Temp: 13.4°C   Baro: 1008.5mb
  Wind: 4.9mph   Dir: SW (234°)
  Rain: 6.4mm (0.0mm/hr)
  Sun: 279W/m2  Humidity: 92%

Historic data

Bath Spa Weather Station Historical Data
Daily Summary for April 12, 2024 Units:  English    Metric   Both
Daily Weekly Monthly Yearly Custom
  High: Low: Average:
Temperature: 66 °F 45.9 °F 54.6 °F
Dew Point: 55.4 °F 43.2 °F 49 °F
Humidity: 91% 66.8% 82%
Wind Speed: 10.3mph 0mph 4.4mph
Wind Gust: 22mph - -
Wind- - SW
Pressure: 30.42 in 30.27 in -
Precipitation: 0.00 in    
Historical Graphs
 
 
Tabular Data for April 12, 2024
Time Temperature Dew Point Pressure Wind Wind Speed Wind Gust Humidity Rainfall Rate (Hourly) solar
00:09 51.6 °F 49.1 °F 30.42 in SSW 7 mph 14 mph 91% 0.00 in 0 W/m2
00:14 51.4 °F 48.9 °F 30.42 in SSW 8.2 mph 15 mph 91% 0.00 in 0 W/m2
00:19 51.4 °F 48.9 °F 30.42 in SSW 5.9 mph 11 mph 91% 0.00 in 0 W/m2
00:24 51.4 °F 48.9 °F 30.42 in SSW 3.5 mph 8 mph 91% 0.00 in 0 W/m2
00:29 51.4 °F 48.9 °F 30.42 in SSW 5.2 mph 8 mph 91% 0.00 in 0 W/m2
00:34 51.3 °F 48.7 °F 30.42 in SSW 2.5 mph 7 mph 91% 0.00 in 0 W/m2
00:39 51.2 °F 48.7 °F 30.42 in SW 4 mph 13 mph 91% 0.00 in 0 W/m2
00:44 51.1 °F 48.6 °F 30.42 in SW 3.7 mph 9 mph 91% 0.00 in 0 W/m2
00:49 51.1 °F 48.2 °F 30.42 in SSW 4.5 mph 9 mph 90% 0.00 in 0 W/m2
00:54 50.9 °F 48 °F 30.42 in SSW 4.9 mph 7 mph 90% 0.00 in 0 W/m2
00:59 50.8 °F 47.9 °F 30.42 in SSW 5.5 mph 12 mph 90% 0.00 in 0 W/m2
01:04 50.7 °F 47.8 °F 30.42 in SW 5.2 mph 11 mph 90% 0.00 in 0 W/m2
01:09 50.5 °F 47.7 °F 30.42 in SW 5.3 mph 8 mph 90% 0.00 in 0 W/m2
01:14 50.4 °F 47.4 °F 30.42 in SSW 4.5 mph 12 mph 89.6% 0.00 in 0 W/m2
01:19 50.2 °F 47.1 °F 30.42 in SW 6.6 mph 11 mph 89% 0.00 in 0 W/m2
01:24 50.2 °F 47.1 °F 30.42 in SW 4.5 mph 10 mph 89% 0.00 in 0 W/m2
01:29 50 °F 46.9 °F 30.42 in SW 4.5 mph 11 mph 89% 0.00 in 0 W/m2
01:34 49.9 °F 46.9 °F 30.42 in SW 4 mph 6 mph 89% 0.00 in 0 W/m2
01:39 49.8 °F 46.8 °F 30.42 in SW 2.9 mph 7 mph 89% 0.00 in 0 W/m2
01:44 49.6 °F 46.6 °F 30.41 in SSW 2.5 mph 7 mph 89% 0.00 in 0 W/m2
01:49 49.6 °F 46.5 °F 30.42 in SW 3.7 mph 8 mph 88.8% 0.00 in 0 W/m2
01:54 49.5 °F 46 °F 30.41 in SW 5.1 mph 8 mph 88% 0.00 in 0 W/m2
01:59 49.5 °F 46 °F 30.41 in SW 2.9 mph 8 mph 88% 0.00 in 0 W/m2
02:04 49.5 °F 46 °F 30.41 in SW 6.3 mph 10 mph 88% 0.00 in 0 W/m2
02:09 49.3 °F 45.9 °F 30.41 in SW 3.5 mph 7 mph 88% 0.00 in 0 W/m2
02:14 49.3 °F 45.9 °F 30.41 in WSW 4.2 mph 10 mph 88% 0.00 in 0 W/m2
02:19 49.1 °F 45.7 °F 30.40 in SW 1.7 mph 6 mph 88% 0.00 in 0 W/m2
02:24 48.9 °F 45.5 °F 30.41 in WSW 2.9 mph 5 mph 88% 0.00 in 0 W/m2
02:29 48.8 °F 45.4 °F 30.41 in West 4.3 mph 9 mph 88% 0.00 in 0 W/m2
02:34 48.7 °F 45.3 °F 30.41 in West 2.8 mph 8 mph 88% 0.00 in 0 W/m2
02:39 48.7 °F 45.3 °F 30.41 in SW 2.9 mph 6 mph 88% 0.00 in 0 W/m2
02:44 48.6 °F 45.1 °F 30.40 in SW 4.2 mph 8 mph 88% 0.00 in 0 W/m2
02:49 48.6 °F 45.1 °F 30.40 in SW 6.7 mph 9 mph 88% 0.00 in 0 W/m2
02:54 48.6 °F 45.1 °F 30.40 in WSW 4.8 mph 10 mph 88% 0.00 in 0 W/m2
02:59 48.5 °F 45 °F 30.40 in SW 3.5 mph 9 mph 88% 0.00 in 0 W/m2
03:04 48.4 °F 45 °F 30.40 in SW 4.4 mph 8 mph 88% 0.00 in 0 W/m2
03:09 48.4 °F 45 °F 30.40 in SW 4.5 mph 9 mph 88% 0.00 in 0 W/m2
03:13 48.4 °F 45 °F 30.40 in SSW 5.4 mph 8 mph 88% 0.00 in 0 W/m2
03:19 48.3 °F 44.9 °F 30.40 in SSW 3.8 mph 7 mph 88% 0.00 in 0 W/m2
03:24 48.1 °F 44.7 °F 30.40 in South 3.2 mph 6 mph 88% 0.00 in 0 W/m2
03:29 48 °F 44.6 °F 30.40 in WSW 3 mph 6 mph 88% 0.00 in 0 W/m2
03:34 48 °F 44.6 °F 30.40 in West 1.6 mph 4 mph 88% 0.00 in 0 W/m2
03:39 48 °F 44.6 °F 30.40 in West 0.6 mph 2 mph 88% 0.00 in 0 W/m2
03:44 47.9 °F 44.5 °F 30.40 in SW 2 mph 7 mph 88% 0.00 in 0 W/m2
03:49 47.8 °F 44.4 °F 30.40 in West 3.4 mph 6 mph 88% 0.00 in 0 W/m2
03:54 47.8 °F 44.4 °F 30.40 in West 2.5 mph 4 mph 88% 0.00 in 0 W/m2
03:59 47.7 °F 44.2 °F 30.40 in West 2.4 mph 4 mph 88% 0.00 in 0 W/m2
04:04 47.5 °F 44.1 °F 30.40 in WSW 2.4 mph 4 mph 88% 0.00 in 0 W/m2
04:09 47.3 °F 43.9 °F 30.40 in WSW 2.6 mph 5 mph 88% 0.00 in 0 W/m2
04:14 47.1 °F 43.7 °F 30.40 in WSW 2.5 mph 8 mph 88% 0.00 in 0 W/m2
04:19 47.1 °F 44 °F 30.40 in SW 1.3 mph 4 mph 88.8% 0.00 in 0 W/m2
04:24 47.1 °F 44.1 °F 30.40 in SW 1.8 mph 4 mph 89% 0.00 in 0 W/m2
04:29 46.9 °F 43.9 °F 30.40 in SW 1.5 mph 4 mph 89% 0.00 in 0 W/m2
04:34 46.9 °F 43.9 °F 30.40 in WSW 2.7 mph 5 mph 89% 0.00 in 0 W/m2
04:39 47 °F 44 °F 30.40 in West 2.8 mph 6 mph 89% 0.00 in 0 W/m2
04:44 47.1 °F 44.1 °F 30.40 in West 4.3 mph 7 mph 89% 0.00 in 0 W/m2
04:49 47.2 °F 44.1 °F 30.40 in WSW 4.5 mph 9 mph 89% 0.00 in 0 W/m2
04:54 47.2 °F 44.1 °F 30.40 in WSW 2.8 mph 7 mph 89% 0.00 in 0 W/m2
04:59 47.1 °F 44.1 °F 30.40 in WSW 1.5 mph 4 mph 89% 0.00 in 0 W/m2
05:04 47 °F 44 °F 30.40 in SW 1.6 mph 3 mph 89% 0.00 in 0 W/m2
05:09 46.9 °F 43.8 °F 30.40 in West 3.2 mph 6 mph 89% 0.00 in 0 W/m2
05:14 46.9 °F 43.8 °F 30.40 in West 2.2 mph 5 mph 89% 0.00 in 0 W/m2
05:19 46.9 °F 43.9 °F 30.40 in WSW 3.6 mph 7 mph 89% 0.00 in 0 W/m2
05:24 47.1 °F 44.1 °F 30.39 in WSW 2.7 mph 7 mph 89% 0.00 in 0 W/m2
05:29 46.9 °F 43.8 °F 30.39 in WSW 1.7 mph 6 mph 89% 0.00 in 0 W/m2
05:34 46.7 °F 43.7 °F 30.40 in WSW 0.8 mph 4 mph 89.4% 0.00 in 0 W/m2
05:39 46.4 °F 43.7 °F 30.40 in WSW 1.5 mph 4 mph 90% 0.00 in 0 W/m2
05:44 46.2 °F 43.3 °F 30.40 in WSW 2.5 mph 4 mph 89.3% 0.00 in 0 W/m2
05:49 46.2 °F 43.5 °F 30.40 in WSW 2.5 mph 4 mph 90% 0.00 in 0 W/m2
05:54 46.2 °F 43.5 °F 30.40 in WSW 2.1 mph 4 mph 90% 0.00 in 0 W/m2
05:59 46.2 °F 43.5 °F 30.40 in WSW 2.4 mph 4 mph 90% 0.00 in 0 W/m2
06:04 46.2 °F 43.5 °F 30.40 in WSW 2 mph 6 mph 90% 0.00 in 0 W/m2
06:09 46.2 °F 43.5 °F 30.40 in West 1.9 mph 3 mph 90% 0.00 in 0 W/m2
06:14 46.2 °F 43.5 °F 30.40 in West 1.3 mph 3 mph 90% 0.00 in 0 W/m2
06:19 46 °F 43.3 °F 30.40 in West 2 mph 4 mph 90% 0.00 in 0 W/m2
06:24 46 °F 43.3 °F 30.40 in West 1.9 mph 5 mph 90% 0.00 in 0 W/m2
06:29 45.9 °F 43.2 °F 30.40 in West 2.1 mph 4 mph 90% 0.00 in 0 W/m2
06:34 46 °F 43.3 °F 30.40 in West 2.3 mph 4 mph 90% 0.00 in 7 W/m2
06:39 46 °F 43.4 °F 30.40 in West 2.9 mph 5 mph 90.4% 0.00 in 11 W/m2
06:44 46 °F 43.5 °F 30.40 in West 2.9 mph 4 mph 91% 0.00 in 12 W/m2
06:49 46.2 °F 43.7 °F 30.40 in WNW 3.1 mph 5 mph 91% 0.00 in 18 W/m2
06:54 46.2 °F 43.7 °F 30.40 in WNW 2 mph 4 mph 91% 0.00 in 21 W/m2
06:59 46.1 °F 43.6 °F 30.40 in WNW 3.1 mph 6 mph 91% 0.00 in 28 W/m2
07:04 46.2 °F 43.7 °F 30.40 in NW 3.3 mph 6 mph 91% 0.00 in 35 W/m2
07:09 46.3 °F 43.8 °F 30.40 in NW 2.9 mph 5 mph 91% 0.00 in 40 W/m2
07:14 46.5 °F 44 °F 30.40 in NW 3 mph 5 mph 91% 0.00 in 42 W/m2
07:19 46.5 °F 44 °F 30.40 in NW 2.2 mph 5 mph 91% 0.00 in 46 W/m2
07:24 46.6 °F 44.1 °F 30.40 in WNW 1.6 mph 4 mph 91% 0.00 in 51 W/m2
07:29 46.6 °F 44.1 °F 30.40 in WNW 2.2 mph 5 mph 91% 0.00 in 51 W/m2
07:34 46.8 °F 44.2 °F 30.40 in WNW 2.7 mph 5 mph 91% 0.00 in 47 W/m2
07:39 46.8 °F 44.2 °F 30.40 in WNW 3.5 mph 5 mph 91% 0.00 in 49 W/m2
07:44 46.8 °F 44.3 °F 30.40 in WNW 1.8 mph 4 mph 91% 0.00 in 56 W/m2
07:49 46.9 °F 44.4 °F 30.41 in WNW 1.9 mph 3 mph 91% 0.00 in 86 W/m2
07:54 46.9 °F 44.4 °F 30.41 in WNW 2.3 mph 4 mph 91% 0.00 in 113 W/m2
07:59 47.1 °F 44.6 °F 30.41 in WNW 2 mph 4 mph 91% 0.00 in 137 W/m2
08:04 47.5 °F 45 °F 30.41 in WNW 2.8 mph 5 mph 91% 0.00 in 155 W/m2
08:09 47.7 °F 45.1 °F 30.40 in West 2.3 mph 5 mph 91% 0.00 in 167 W/m2
08:14 47.8 °F 45.3 °F 30.41 in WSW 2.5 mph 4 mph 91% 0.00 in 155 W/m2
08:19 48.1 °F 45.6 °F 30.41 in NW 3 mph 4 mph 91% 0.00 in 176 W/m2
08:24 48.4 °F 45.9 °F 30.41 in NW 3.5 mph 7 mph 91% 0.00 in 214 W/m2
08:29 48.5 °F 45.9 °F 30.41 in WNW 3.1 mph 6 mph 91% 0.00 in 243 W/m2
08:34 48.8 °F 46.2 °F 30.41 in NW 2.8 mph 7 mph 91% 0.00 in 248 W/m2
08:39 49.3 °F 46.8 °F 30.41 in WNW 2.9 mph 6 mph 91% 0.00 in 237 W/m2
08:44 49.5 °F 46.9 °F 30.41 in WNW 3.6 mph 7 mph 91% 0.00 in 220 W/m2
08:49 49.7 °F 47.1 °F 30.41 in West 1.3 mph 6 mph 91% 0.00 in 264 W/m2
08:54 50.2 °F 47.5 °F 30.41 in WSW 3.6 mph 7 mph 90.6% 0.00 in 334 W/m2
08:59 50.6 °F 47.8 °F 30.41 in WSW 2.1 mph 5 mph 90.2% 0.00 in 306 W/m2
09:04 51.2 °F 48.3 °F 30.41 in SW 4.4 mph 9 mph 90% 0.00 in 320 W/m2
09:09 51.7 °F 48.8 °F 30.41 in SW 3.4 mph 7 mph 89.8% 0.00 in 364 W/m2
09:14 52 °F 48.9 °F 30.41 in SW 4.7 mph 8 mph 89% 0.00 in 327 W/m2
09:19 52.4 °F 48.9 °F 30.41 in SW 3.6 mph 8 mph 88% 0.00 in 454 W/m2
09:24 52.9 °F 49.1 °F 30.41 in SW 5.6 mph 8 mph 87.2% 0.00 in 445 W/m2
09:29 53.1 °F 48.8 °F 30.41 in SW 5.2 mph 9 mph 85.8% 0.00 in 343 W/m2
09:34 53.1 °F 48.8 °F 30.41 in SW 4 mph 9 mph 85% 0.00 in 399 W/m2
09:39 53.2 °F 48.7 °F 30.41 in SW 5.8 mph 11 mph 84.2% 0.00 in 496 W/m2
09:44 53.7 °F 48.8 °F 30.41 in SW 4.5 mph 11 mph 83.4% 0.00 in 517 W/m2
09:49 54.1 °F 48.9 °F 30.41 in SW 6.6 mph 13 mph 82.6% 0.00 in 448 W/m2
09:54 54.1 °F 48.4 °F 30.41 in SW 5.6 mph 14 mph 81.2% 0.00 in 471 W/m2
09:59 54.3 °F 48.6 °F 30.41 in WSW 7.6 mph 12 mph 81% 0.00 in 541 W/m2
10:04 55.1 °F 49 °F 30.41 in WSW 4.3 mph 13 mph 80.2% 0.00 in 489 W/m2
10:09 55.7 °F 49.4 °F 30.41 in SW 4.8 mph 13 mph 79.4% 0.00 in 557 W/m2
10:14 56.1 °F 49.5 °F 30.41 in SW 6.2 mph 14 mph 78.6% 0.00 in 552 W/m2
10:19 55.9 °F 48.9 °F 30.41 in SSW 8.6 mph 14 mph 77.4% 0.00 in 563 W/m2
10:24 56.1 °F 49.2 °F 30.41 in SW 8.5 mph 14 mph 77.8% 0.00 in 534 W/m2
10:29 56.5 °F 49.3 °F 30.41 in SW 7.2 mph 16 mph 77% 0.00 in 494 W/m2
10:34 57 °F 49.8 °F 30.41 in SSW 6.7 mph 12 mph 77% 0.00 in 578 W/m2
10:39 57.4 °F 50 °F 30.41 in SW 6.4 mph 16 mph 76.6% 0.00 in 570 W/m2
10:44 57.6 °F 50.2 °F 30.41 in SW 8.2 mph 18 mph 76.4% 0.00 in 527 W/m2
10:49 57.6 °F 50 °F 30.41 in SW 9.6 mph 17 mph 76% 0.00 in 563 W/m2
10:54 57.7 °F 50.1 °F 30.41 in SW 7.4 mph 14 mph 76% 0.00 in 612 W/m2
10:59 58.1 °F 50.5 °F 30.41 in WSW 5.8 mph 12 mph 76% 0.00 in 510 W/m2
11:04 58.5 °F 50.9 °F 30.41 in SW 4.5 mph 11 mph 76% 0.00 in 563 W/m2
11:09 58.9 °F 51.3 °F 30.41 in WSW 6.4 mph 13 mph 76% 0.00 in 520 W/m2
11:14 59.2 °F 51.6 °F 30.41 in WSW 6.3 mph 13 mph 76% 0.00 in 527 W/m2
11:19 59.4 °F 51.5 °F 30.41 in SW 8.9 mph 15 mph 75% 0.00 in 554 W/m2
11:24 59.5 °F 51.6 °F 30.41 in WSW 8 mph 15 mph 75% 0.00 in 585 W/m2
11:29 60 °F 52.1 °F 30.40 in WSW 7.4 mph 13 mph 75% 0.00 in 531 W/m2
11:34 60.4 °F 52.4 °F 30.40 in WSW 7.2 mph 12 mph 74.8% 0.00 in 519 W/m2
11:39 60.5 °F 52.3 °F 30.40 in WSW 7.4 mph 12 mph 74% 0.00 in 483 W/m2
11:44 60.4 °F 52.3 °F 30.40 in WSW 6.2 mph 12 mph 74.2% 0.00 in 508 W/m2
11:49 61 °F 53.1 °F 30.40 in SW 5.3 mph 11 mph 75% 0.00 in 577 W/m2
11:54 61.3 °F 53.2 °F 30.40 in SSW 4.7 mph 11 mph 74.4% 0.00 in 589 W/m2
11:56 61.3 °F 53 °F 30.40 in SSW 6.5 mph 12 mph 74% 0.00 in 534 W/m2
12:04 61.2 °F 53 °F 30.40 in SW 6.5 mph 14 mph 74.5% 0.00 in 629 W/m2
12:09 61.2 °F 53.1 °F 30.40 in SSW 6.6 mph 12 mph 74.4% 0.00 in 580 W/m2
12:14 61.2 °F 53 °F 30.40 in SW 6.3 mph 12 mph 74.2% 0.00 in 598 W/m2
12:19 61.4 °F 53.3 °F 30.40 in SW 5.7 mph 13 mph 74.4% 0.00 in 515 W/m2
12:24 61.6 °F 53.2 °F 30.40 in SW 3.6 mph 10 mph 74% 0.00 in 570 W/m2
12:29 61.9 °F 53.4 °F 30.40 in SSW 6.1 mph 11 mph 74% 0.00 in 601 W/m2
12:34 62 °F 53.1 °F 30.40 in SSW 6.8 mph 12 mph 72.8% 0.00 in 603 W/m2
12:39 61.8 °F 52.6 °F 30.40 in SSW 10 mph 17 mph 72% 0.00 in 652 W/m2
12:44 62.1 °F 53.2 °F 30.39 in SSW 5.4 mph 13 mph 72.4% 0.00 in 617 W/m2
12:49 62.2 °F 53.3 °F 30.39 in SW 10.2 mph 19 mph 72.4% 0.00 in 626 W/m2
12:54 62.4 °F 53.6 °F 30.39 in WSW 7.2 mph 16 mph 73% 0.00 in 742 W/m2
12:59 62.9 °F 53.8 °F 30.39 in SW 7.6 mph 12 mph 72.4% 0.00 in 749 W/m2
13:04 63.4 °F 54.2 °F 30.39 in SW 5 mph 12 mph 72% 0.00 in 710 W/m2
13:09 63.9 °F 54.4 °F 30.38 in SSW 6.4 mph 14 mph 71.2% 0.00 in 719 W/m2
13:14 63.6 °F 54 °F 30.38 in South 8.4 mph 17 mph 70.8% 0.00 in 703 W/m2
13:19 63.4 °F 53.6 °F 30.38 in SW 10.3 mph 17 mph 70.2% 0.00 in 598 W/m2
13:24 63.3 °F 53.6 °F 30.38 in SW 10.1 mph 17 mph 70.4% 0.00 in 543 W/m2
13:29 63.1 °F 53.4 °F 30.38 in SSW 9.4 mph 22 mph 70.6% 0.00 in 615 W/m2
13:34 63.3 °F 53.7 °F 30.38 in WSW 6.8 mph 16 mph 70.8% 0.00 in 577 W/m2
13:39 63.9 °F 54.1 °F 30.38 in SW 7 mph 15 mph 70.6% 0.00 in 738 W/m2
13:44 64 °F 54.3 °F 30.38 in SSW 6.6 mph 15 mph 70.6% 0.00 in 735 W/m2
13:49 64.2 °F 54.3 °F 30.37 in SSW 9.8 mph 17 mph 70.2% 0.00 in 784 W/m2
13:54 64.4 °F 54.3 °F 30.37 in SW 8.4 mph 15 mph 70% 0.00 in 784 W/m2
13:59 64.6 °F 54.6 °F 30.37 in SSW 8.4 mph 14 mph 70% 0.00 in 751 W/m2
14:04 65 °F 54.8 °F 30.37 in SSW 10.2 mph 15 mph 69.6% 0.00 in 788 W/m2
14:09 65.1 °F 54.7 °F 30.37 in SW 7.2 mph 13 mph 69% 0.00 in 689 W/m2
14:14 65.5 °F 55.1 °F 30.37 in WSW 8.8 mph 17 mph 69% 0.00 in 715 W/m2
14:19 65.7 °F 55.2 °F 30.38 in South 4.9 mph 13 mph 69% 0.00 in 668 W/m2
14:24 66 °F 55.4 °F 30.37 in SW 6.2 mph 12 mph 68.6% 0.00 in 775 W/m2
14:29 65.9 °F 55.1 °F 30.37 in SSW 6.8 mph 15 mph 68% 0.00 in 700 W/m2
14:34 65.7 °F 54.9 °F 30.37 in SW 5.6 mph 17 mph 68% 0.00 in 735 W/m2
14:39 65.6 °F 54.8 °F 30.37 in SSW 5.4 mph 15 mph 68% 0.00 in 740 W/m2
14:44 65.5 °F 54.7 °F 30.37 in SW 9 mph 16 mph 68% 0.00 in 707 W/m2
14:49 65.3 °F 54.5 °F 30.37 in SSW 7.6 mph 12 mph 67.8% 0.00 in 671 W/m2
14:54 65.3 °F 54.5 °F 30.37 in SW 9.6 mph 18 mph 67.8% 0.00 in 710 W/m2
14:59 65.6 °F 54.6 °F 30.36 in SSW 7.5 mph 14 mph 67.6% 0.00 in 726 W/m2
15:04 65.7 °F 54.5 °F 30.36 in SW 9.8 mph 18 mph 67.3% 0.00 in 689 W/m2
15:09 65.5 °F 54.6 °F 30.36 in SSW 6.8 mph 17 mph 67.6% 0.00 in 640 W/m2
15:14 65.7 °F 54.4 °F 30.36 in SSW 7.8 mph 15 mph 67% 0.00 in 670 W/m2
15:19 65.8 °F 54.4 °F 30.35 in SSW 6 mph 13 mph 67% 0.00 in 679 W/m2
15:24 65.8 °F 54.5 °F 30.35 in South 6.8 mph 13 mph 66.8% 0.00 in 603 W/m2
15:29 65.2 °F 54 °F 30.35 in South 8.3 mph 16 mph 66.8% 0.00 in 571 W/m2
15:34 65.4 °F 54.5 °F 30.35 in SSW 6.4 mph 14 mph 67.8% 0.00 in 594 W/m2
15:39 65.4 °F 54.2 °F 30.35 in SSW 9.8 mph 14 mph 67% 0.00 in 559 W/m2
15:44 64.9 °F 54.2 °F 30.35 in SSW 7.4 mph 15 mph 68.2% 0.00 in 650 W/m2
15:49 64.9 °F 54.1 °F 30.34 in South 8 mph 13 mph 68% 0.00 in 650 W/m2
15:54 65 °F 54.4 °F 30.34 in South 4.3 mph 14 mph 68.4% 0.00 in 619 W/m2
15:59 65.5 °F 54.6 °F 30.34 in South 7.1 mph 13 mph 67.8% 0.00 in 633 W/m2
16:04 65.4 °F 54.5 °F 30.34 in SSW 7.6 mph 13 mph 67.8% 0.00 in 577 W/m2
16:09 65 °F 54.1 °F 30.34 in SSE 8.2 mph 17 mph 67.8% 0.00 in 476 W/m2
16:14 64.9 °F 54.1 °F 30.33 in South 7.6 mph 21 mph 68% 0.00 in 494 W/m2
16:19 65.5 °F 54.7 °F 30.33 in South 5.9 mph 13 mph 68% 0.00 in 540 W/m2
16:24 65.7 °F 54.9 °F 30.33 in SSW 6.5 mph 13 mph 68% 0.00 in 473 W/m2
16:29 65.6 °F 54.5 °F 30.33 in South 5.2 mph 11 mph 67.4% 0.00 in 508 W/m2
16:32 65.4 °F 54.5 °F 30.33 in South 4.6 mph 12 mph 67.7% 0.00 in 422 W/m2
16:39 65.3 °F 54.2 °F 30.32 in South 7 mph 12 mph 67.4% 0.00 in 366 W/m2
16:44 64.9 °F 54.1 °F 30.32 in SSW 7.8 mph 16 mph 68% 0.00 in 494 W/m2
17:44 62.7 °F 53.2 °F 30.32 in SSW 6.6 mph 13 mph 71% 0.00 in 232 W/m2
17:49 62.1 °F 52.5 °F 30.32 in SSW 7 mph 14 mph 71% 0.00 in 239 W/m2
17:54 61.9 °F 52.3 °F 30.32 in South 6.6 mph 15 mph 71% 0.00 in 214 W/m2
17:59 61.9 °F 52.3 °F 30.32 in SSW 6.6 mph 17 mph 71% 0.00 in 192 W/m2
18:04 61.7 °F 52.3 °F 30.32 in SSW 4.1 mph 12 mph 71.2% 0.00 in 165 W/m2
18:09 61.5 °F 52 °F 30.32 in SSW 7.2 mph 16 mph 71% 0.00 in 158 W/m2
18:14 61.3 °F 52.1 °F 30.32 in South 6.8 mph 16 mph 71.8% 0.00 in 183 W/m2
18:44 60.6 °F 51.1 °F 30.32 in SW 4 mph 8 mph 71% 0.00 in 93 W/m2
18:49 60.6 °F 51.6 °F 30.32 in SSW 4.2 mph 7 mph 72% 0.00 in 95 W/m2
18:54 60.5 °F 51.5 °F 30.32 in SW 5.8 mph 11 mph 72% 0.00 in 91 W/m2
18:59 60.3 °F 51.3 °F 30.32 in SW 4.8 mph 10 mph 72% 0.00 in 90 W/m2
19:03 60.3 °F 51.3 °F 30.32 in SSW 6 mph 10 mph 72% 0.00 in 81 W/m2
19:09 59.9 °F 51.3 °F 30.32 in SSW 4.8 mph 10 mph 72.8% 0.00 in 74 W/m2
19:39 58.8 °F 50.9 °F 30.31 in SSW 2.5 mph 6 mph 75% 0.00 in 23 W/m2
19:44 58.6 °F 50.7 °F 30.31 in SSW 4.5 mph 8 mph 75% 0.00 in 19 W/m2
19:46 58.5 °F 50.5 °F 30.31 in SSW 3.9 mph 8 mph 75% 0.00 in 14 W/m2
19:54 58.1 °F 50.5 °F 30.28 in South 4.5 mph 6 mph 76% 0.00 in 11 W/m2
19:59 57.8 °F 50.3 °F 30.28 in South 3.2 mph 8 mph 76% 0.00 in 7 W/m2
20:02 57.7 °F 50.3 °F 30.27 in SSW 3.5 mph 6 mph 76.5% 0.00 in 5 W/m2
20:14 57 °F 50 °F 30.31 in SW 5.5 mph 7 mph 77.5% 0.00 in 0 W/m2
20:19 56.9 °F 50.1 °F 30.31 in SSW 2.8 mph 8 mph 78% 0.00 in 0 W/m2
20:24 56.7 °F 49.8 °F 30.32 in SSW 2.8 mph 9 mph 78% 0.00 in 0 W/m2
20:29 56.6 °F 50.1 °F 30.32 in South 4.7 mph 7 mph 79% 0.00 in 0 W/m2
20:34 56.3 °F 50 °F 30.32 in South 2.7 mph 7 mph 79.6% 0.00 in 0 W/m2
20:39 56 °F 50 °F 30.32 in SSW 3.1 mph 8 mph 80.4% 0.00 in 0 W/m2
20:44 55.9 °F 50.2 °F 30.32 in SSW 3.5 mph 8 mph 81% 0.00 in 0 W/m2
20:49 55.7 °F 50.1 °F 30.32 in SSW 3.7 mph 8 mph 81.4% 0.00 in 0 W/m2
20:54 55.5 °F 50.1 °F 30.33 in SW 3.7 mph 7 mph 82% 0.00 in 0 W/m2
20:59 55.3 °F 49.9 °F 30.33 in WSW 3.6 mph 8 mph 82% 0.00 in 0 W/m2
21:04 55.2 °F 50.2 °F 30.33 in SW 2.4 mph 6 mph 82.8% 0.00 in 0 W/m2
21:09 55.1 °F 50.1 °F 30.33 in SW 2.4 mph 7 mph 83% 0.00 in 0 W/m2
21:14 54.9 °F 49.8 °F 30.33 in WSW 1.7 mph 4 mph 83% 0.00 in 0 W/m2
21:19 54.7 °F 49.9 °F 30.33 in WNW 5.6 mph 10 mph 83.6% 0.00 in 0 W/m2
21:24 54.7 °F 50 °F 30.34 in West 3.3 mph 8 mph 84% 0.00 in 0 W/m2
21:29 54.5 °F 49.8 °F 30.34 in West 4.8 mph 8 mph 84% 0.00 in 0 W/m2
21:34 54.3 °F 49.7 °F 30.34 in West 3.5 mph 8 mph 84.4% 0.00 in 0 W/m2
21:39 54.1 °F 49.8 °F 30.34 in WSW 4.8 mph 7 mph 85% 0.00 in 0 W/m2
21:44 54 °F 49.6 °F 30.34 in WSW 4.1 mph 8 mph 85% 0.00 in 0 W/m2
21:49 53.9 °F 49.6 °F 30.34 in WSW 2.8 mph 5 mph 85.4% 0.00 in 0 W/m2
21:54 53.8 °F 49.6 °F 30.34 in WSW 3 mph 7 mph 86% 0.00 in 0 W/m2
21:59 53.8 °F 49.6 °F 30.34 in WSW 2.9 mph 5 mph 86% 0.00 in 0 W/m2
22:04 53.6 °F 49.5 °F 30.34 in WSW 2.1 mph 4 mph 86% 0.00 in 0 W/m2
22:09 53.4 °F 49.3 °F 30.34 in WSW 0.9 mph 3 mph 86% 0.00 in 0 W/m2
22:14 53.4 °F 49.4 °F 30.34 in WSW 1 mph 3 mph 86.4% 0.00 in 0 W/m2
22:19 53.4 °F 49.6 °F 30.34 in WSW 0.8 mph 3 mph 87% 0.00 in 0 W/m2
22:24 53.2 °F 49.5 °F 30.34 in WSW 0.5 mph 3 mph 87% 0.00 in 0 W/m2
22:29 53.2 °F 49.5 °F 30.34 in Calm     87% 0.00 in 0 W/m2
22:34 53.1 °F 49.4 °F 30.33 in WSW 0.6 mph 3 mph 87% 0.00 in 0 W/m2
22:39 53.1 °F 49.3 °F 30.33 in WSW 1.2 mph 4 mph 87% 0.00 in 0 W/m2
22:44 53.1 °F 49.3 °F 30.33 in SW 2.6 mph 6 mph 87% 0.00 in 0 W/m2
22:49 52.9 °F 49.1 °F 30.34 in SW 2 mph 5 mph 87% 0.00 in 0 W/m2
22:54 52.9 °F 49.3 °F 30.33 in Calm   3 mph 87.4% 0.00 in 0 W/m2
22:59 52.8 °F 49.4 °F 30.34 in SW 1.4 mph 5 mph 88% 0.00 in 0 W/m2
23:04 52.6 °F 49.2 °F 30.33 in SW 0.8 mph 3 mph 88% 0.00 in 0 W/m2
23:09 52.5 °F 49.1 °F 30.33 in SW 1.3 mph 4 mph 88% 0.00 in 0 W/m2
23:14 52.5 °F 49.1 °F 30.33 in SW 2.1 mph 5 mph 88% 0.00 in 0 W/m2
23:19 52.3 °F 48.9 °F 30.32 in SW 1.2 mph 5 mph 88% 0.00 in 0 W/m2
23:24 52.3 °F 48.9 °F 30.32 in SW 1.7 mph 5 mph 88% 0.00 in 0 W/m2
23:29 52.3 °F 48.8 °F 30.33 in SW 1.6 mph 4 mph 88% 0.00 in 0 W/m2
23:34 52.2 °F 48.7 °F 30.33 in SW 1.4 mph 4 mph 88% 0.00 in 0 W/m2
23:39 52.2 °F 49 °F 30.33 in SW 0.7 mph 4 mph 88.6% 0.00 in 0 W/m2
23:44 52.3 °F 49.2 °F 30.33 in SW 0.8 mph 2 mph 89% 0.00 in 0 W/m2
23:49 52.3 °F 49.3 °F 30.32 in SW 0.4 mph 2 mph 89% 0.00 in 0 W/m2
23:54 52.2 °F 49.1 °F 30.32 in SW 0.2 mph 2 mph 89% 0.00 in 0 W/m2
23:59 52.2 °F 49.1 °F 30.32 in Calm   1 mph 89% 0.00 in 0 W/m2
Bath Spa Weather
Compliments of Weather Underground - 2 mb